Time;durP1;ratioP1;P1;durP2;ratioP2;P2;SDS_P1;SDS_P2;PMS_P1;PMS_P2;Temp;Humidity;BMP_temperature;BMP_pressure;BME280_temperature;BME280_humidity;BME280_pressure;Samples;Min_cycle;Max_cycle;Signal;HPM_P1;HPM_P2
2023/04/29 00:01:39;;;;;;;6.03;4.97;;;13.60;98.30;;;;;;4991689;28;20442;-66
2023/04/29 00:04:05;;;;;;;8.05;5.00;;;13.60;98.20;;;;;;4989235;28;20125;-66
2023/04/29 00:06:31;;;;;;;7.10;5.32;;;13.70;98.20;;;;;;4991889;28;20114;-67
2023/04/29 00:08:57;;;;;;;8.00;4.80;;;13.70;98.30;;;;;;4988806;28;20061;-66
2023/04/29 00:11:22;;;;;;;6.75;4.88;;;13.70;98.20;;;;;;4995287;28;20041;-66
2023/04/29 00:13:48;;;;;;;7.22;5.32;;;13.60;98.10;;;;;;4989343;28;20049;-66
2023/04/29 00:16:14;;;;;;;7.30;5.13;;;13.70;98.20;;;;;;4990761;28;20034;-66
2023/04/29 00:18:40;;;;;;;7.00;5.15;;;13.60;98.60;;;;;;4988202;28;20038;-66
2023/04/29 00:21:05;;;;;;;8.20;5.45;;;13.70;98.60;;;;;;4990023;28;20116;-66
2023/04/29 00:23:34;;;;;;;7.65;5.32;;;13.60;98.70;;;;;;4990622;28;20121;-67
2023/04/29 00:26:00;;;;;;;7.25;4.70;;;13.60;98.90;;;;;;4990362;28;20088;-67
2023/04/29 00:28:26;;;;;;;7.05;4.93;;;13.70;99.20;;;;;;4989173;28;20042;-66
2023/04/29 00:30:52;;;;;;;7.93;5.40;;;13.60;99.70;;;;;;4991381;28;20041;-67
2023/04/29 00:33:18;;;;;;;8.30;4.90;;;13.60;99.90;;;;;;4972692;28;20117;-67
2023/04/29 00:35:43;;;;;;;10.48;6.03;;;13.60;99.90;;;;;;4973715;28;20085;-67
2023/04/29 00:38:09;;;;;;;8.57;6.03;;;13.50;99.90;;;;;;4968001;28;20048;-67
2023/04/29 00:40:36;;;;;;;8.90;6.60;;;13.50;99.90;;;;;;4971859;28;20030;-66
2023/04/29 00:43:02;;;;;;;8.45;6.20;;;13.50;99.90;;;;;;4970868;28;20046;-67
2023/04/29 00:45:27;;;;;;;8.95;6.07;;;13.40;99.90;;;;;;4974637;28;20030;-67
2023/04/29 00:47:53;;;;;;;9.75;6.30;;;13.30;99.90;;;;;;4988118;28;20148;-67
2023/04/29 00:50:20;;;;;;;9.23;6.15;;;13.30;99.90;;;;;;4977102;28;20045;-67
2023/04/29 00:52:47;;;;;;;8.20;6.25;;;13.30;99.90;;;;;;4987783;28;20489;-67
2023/04/29 00:55:13;;;;;;;12.10;6.95;;;13.20;99.90;;;;;;4970231;28;20486;-67
2023/04/29 00:57:39;;;;;;;7.18;5.90;;;13.30;99.90;;;;;;4982976;28;20057;-67
2023/04/29 01:00:05;;;;;;;9.82;7.07;;;13.30;99.90;;;;;;4964393;28;20137;-67
2023/04/29 01:02:32;;;;;;;9.65;6.32;;;13.20;99.90;;;;;;4985906;28;20584;-67
2023/04/29 01:04:58;;;;;;;10.25;6.95;;;13.30;99.90;;;;;;4970510;28;20042;-67
2023/04/29 01:07:53;;;;;;;9.20;6.32;;;13.20;99.90;;;;;;4969224;28;20562;-67
2023/04/29 01:10:38;;;;;;;9.43;6.38;;;13.20;99.90;;;;;;4987018;28;20026;-67
2023/04/29 01:13:21;;;;;;;7.25;5.78;;;13.20;99.90;;;;;;4969811;28;20038;-67
2023/04/29 01:16:05;;;;;;;8.18;6.43;;;13.20;99.90;;;;;;4984307;28;20032;-67
2023/04/29 01:18:53;;;;;;;10.68;7.47;;;13.10;99.90;;;;;;4990123;28;20033;-67
2023/04/29 01:21:24;;;;;;;9.30;6.55;;;13.10;99.90;;;;;;4985567;28;20113;-67
2023/04/29 01:23:59;;;;;;;11.50;7.65;;;13.10;99.90;;;;;;4971569;28;20033;-67
2023/04/29 01:26:32;;;;;;;11.75;8.35;;;13.10;99.90;;;;;;4956604;28;20494;-68
2023/04/29 01:29:25;;;;;;;9.82;7.35;;;13.10;99.90;;;;;;4987000;28;20029;-67
2023/04/29 01:32:15;;;;;;;9.85;7.20;;;13.10;99.90;;;;;;4970854;28;20699;-67
2023/04/29 01:35:02;;;;;;;8.90;6.47;;;13.10;99.90;;;;;;4972845;28;20509;-67
2023/04/29 01:37:34;;;;;;;;;;;13.10;99.90;;;;;;4985083;28;20029;-67
2023/04/29 01:40:09;;;;;;;9.82;7.65;;;13.00;99.90;;;;;;4952583;28;19920;-67
2023/04/29 01:43:17;;;;;;;9.63;6.97;;;13.00;99.90;;;;;;4971206;28;20026;-67
2023/04/29 01:45:46;;;;;;;9.73;8.32;;;13.10;99.90;;;;;;4910125;29;20067;-67
2023/04/29 01:48:14;;;;;;;13.45;8.68;;;13.10;99.90;;;;;;4970906;28;20043;-67
2023/04/29 01:50:40;;;;;;;10.18;7.60;;;13.10;99.90;;;;;;4970534;28;20027;-67
2023/04/29 01:53:10;;;;;;;10.50;8.02;;;13.10;99.90;;;;;;4968948;28;20041;-67
2023/04/29 01:55:36;;;;;;;10.63;7.90;;;13.10;99.90;;;;;;4970908;28;20122;-67
2023/04/29 01:58:11;;;;;;;12.10;8.60;;;13.10;99.90;;;;;;4965101;28;20085;-67
2023/04/29 02:01:00;;;;;;;12.68;8.70;;;13.10;99.90;;;;;;4982486;28;20031;-68
2023/04/29 02:03:28;;;;;;;10.70;7.88;;;13.10;99.90;;;;;;4970788;28;20034;-67
2023/04/29 02:05:56;;;;;;;13.93;9.25;;;13.10;99.90;;;;;;4969894;28;20034;-68
2023/04/29 02:08:22;;;;;;;12.52;8.90;;;13.10;99.90;;;;;;4970054;28;20097;-69
2023/04/29 02:10:58;;;;;;;16.15;9.82;;;13.10;99.90;;;;;;4972597;28;20025;-67
2023/04/29 02:13:35;;;;;;;13.43;10.00;;;13.10;99.90;;;;;;4973359;28;20026;-67
2023/04/29 02:16:13;;;;;;;15.88;10.63;;;13.10;99.90;;;;;;4970220;28;20054;-68
2023/04/29 02:18:44;;;;;;;14.18;9.30;;;13.10;99.90;;;;;;4975250;28;20039;-68
2023/04/29 02:21:11;;;;;;;12.65;9.65;;;13.10;99.90;;;;;;4973412;28;20034;-67
2023/04/29 02:23:36;;;;;;;16.73;11.15;;;13.10;99.90;;;;;;4974402;28;20498;-67
2023/04/29 02:26:05;;;;;;;15.95;10.88;;;13.20;99.90;;;;;;4971732;28;20046;-67
2023/04/29 02:28:31;;;;;;;15.20;11.48;;;13.10;99.90;;;;;;4992444;28;20048;-68
2023/04/29 02:30:57;;;;;;;15.55;11.10;;;13.10;99.90;;;;;;4971918;28;20075;-67
2023/04/29 02:33:23;;;;;;;17.02;11.32;;;13.10;99.90;;;;;;4988781;28;20840;-67
2023/04/29 02:35:49;;;;;;;16.95;12.02;;;13.10;99.90;;;;;;4976815;28;20133;-67
2023/04/29 02:38:15;;;;;;;17.13;11.88;;;13.20;99.90;;;;;;4991273;28;20425;-68
2023/04/29 02:40:45;;;;;;;17.35;12.40;;;13.10;99.90;;;;;;4976617;28;20026;-67
2023/04/29 02:43:11;;;;;;;16.60;11.68;;;13.10;99.90;;;;;;4973442;28;20306;-67
2023/04/29 02:45:37;;;;;;;14.85;11.02;;;13.10;99.90;;;;;;4988697;28;20022;-67
2023/04/29 02:48:04;;;;;;;15.93;10.75;;;13.20;99.90;;;;;;4973617;28;20908;-67
2023/04/29 02:50:31;;;;;;;15.57;11.60;;;13.10;99.90;;;;;;4976481;28;20470;-67
2023/04/29 02:52:57;;;;;;;14.38;10.65;;;13.20;99.90;;;;;;4976247;28;20041;-68
2023/04/29 02:55:23;;;;;;;15.48;11.68;;;13.20;99.90;;;;;;4993235;28;20034;-68
2023/04/29 02:57:49;;;;;;;19.35;12.82;;;13.20;99.90;;;;;;4994619;28;20038;-68
2023/04/29 03:00:15;;;;;;;17.67;12.10;;;13.30;99.90;;;;;;4993735;28;20042;-67
2023/04/29 03:02:40;;;;;;;20.55;14.88;;;13.30;99.90;;;;;;4992736;28;20025;-68
2023/04/29 03:05:07;;;;;;;18.55;13.73;;;13.30;99.90;;;;;;4971990;28;20454;-67
2023/04/29 03:07:33;;;;;;;17.88;12.15;;;13.30;99.90;;;;;;4975210;28;20746;-68
2023/04/29 03:09:59;;;;;;;18.33;13.77;;;13.30;99.90;;;;;;4972374;28;20057;-67
2023/04/29 03:12:25;;;;;;;17.77;13.27;;;13.30;99.90;;;;;;4976961;28;20044;-67
2023/04/29 03:14:50;;;;;;;22.17;15.75;;;13.30;99.90;;;;;;4960732;28;20041;-67
2023/04/29 03:17:16;;;;;;;18.73;13.93;;;13.40;99.90;;;;;;4968350;28;20033;-68
2023/04/29 03:19:42;;;;;;;16.38;12.80;;;13.40;99.90;;;;;;4972494;28;20030;-68
2023/04/29 03:22:10;;;;;;;19.15;13.70;;;13.40;99.90;;;;;;4970423;28;20048;-68
2023/04/29 03:24:39;;;;;;;28.08;17.67;;;13.40;99.90;;;;;;4977822;28;20030;-66
2023/04/29 03:27:05;;;;;;;21.20;14.38;;;13.40;99.90;;;;;;4978278;28;20060;-68
2023/04/29 03:29:32;;;;;;;20.27;13.50;;;13.40;99.90;;;;;;4970454;28;20051;-68
2023/04/29 03:31:58;;;;;;;19.25;12.75;;;13.40;99.90;;;;;;4977119;28;20152;-68
2023/04/29 03:34:24;;;;;;;18.33;13.13;;;13.40;99.90;;;;;;4987599;28;20129;-68
2023/04/29 03:37:04;;;;;;;19.55;13.80;;;13.40;99.90;;;;;;4969860;28;20140;-68
2023/04/29 03:39:31;;;;;;;17.08;13.10;;;13.50;99.90;;;;;;4974226;28;20030;-68
2023/04/29 03:41:58;;;;;;;27.20;17.15;;;13.50;99.90;;;;;;4973068;28;20030;-68
2023/04/29 03:44:25;;;;;;;23.13;15.77;;;13.50;99.90;;;;;;4974071;28;20034;-68
2023/04/29 03:46:51;;;;;;;27.10;16.35;;;13.50;99.90;;;;;;4975589;28;20434;-68
2023/04/29 03:49:17;;;;;;;23.90;16.23;;;13.50;99.90;;;;;;4973682;28;20045;-68
2023/04/29 03:51:46;;;;;;;27.90;16.55;;;13.60;99.90;;;;;;4974074;28;20029;-67
2023/04/29 03:54:14;;;;;;;23.73;16.23;;;13.60;99.90;;;;;;4971488;28;20030;-68
2023/04/29 03:56:42;;;;;;;21.48;15.20;;;13.60;99.90;;;;;;4956994;28;20112;-68
2023/04/29 03:59:08;;;;;;;21.60;14.00;;;13.60;99.90;;;;;;4971467;28;20799;-68
2023/04/29 04:01:35;;;;;;;20.05;13.82;;;13.60;99.90;;;;;;4971522;28;20667;-67
2023/04/29 04:04:01;;;;;;;17.98;12.98;;;13.60;99.90;;;;;;4967804;28;20092;-68
2023/04/29 04:06:30;;;;;;;23.33;15.65;;;13.60;99.90;;;;;;4988132;28;20042;-68
2023/04/29 04:08:57;;;;;;;19.98;14.48;;;13.60;99.90;;;;;;4973339;28;20065;-68
2023/04/29 04:11:27;;;;;;;23.13;16.38;;;13.60;99.90;;;;;;4970709;28;20084;-67
2023/04/29 04:14:02;;;;;;;19.20;13.40;;;13.70;99.90;;;;;;4975600;28;20041;-67
2023/04/29 04:16:29;;;;;;;20.95;14.23;;;13.70;99.90;;;;;;4973695;28;20136;-68
2023/04/29 04:18:55;;;;;;;17.85;12.88;;;13.70;99.90;;;;;;4975144;28;20223;-68
2023/04/29 04:21:21;;;;;;;17.15;12.05;;;13.70;99.90;;;;;;4987347;28;20030;-67
2023/04/29 04:23:55;;;;;;;21.27;13.68;;;13.70;99.90;;;;;;4972831;28;20030;-68
2023/04/29 04:26:22;;;;;;;19.05;13.02;;;13.70;99.90;;;;;;4975347;28;20031;-67
2023/04/29 04:29:06;;;;;;;20.52;14.13;;;13.70;99.90;;;;;;4987209;28;20038;-68
2023/04/29 04:31:38;;;;;;;18.33;13.30;;;13.70;99.90;;;;;;4973259;28;20401;-68
2023/04/29 04:34:06;;;;;;;22.52;15.25;;;13.70;99.90;;;;;;4971190;28;20487;-68
2023/04/29 04:36:32;;;;;;;20.65;13.88;;;13.80;99.90;;;;;;4973989;28;20022;-66
2023/04/29 04:38:58;;;;;;;17.45;12.07;;;13.80;99.90;;;;;;4971794;28;20108;-68
2023/04/29 04:41:24;;;;;;;17.38;11.80;;;13.80;99.90;;;;;;4971083;28;20058;-68
2023/04/29 04:43:51;;;;;;;17.33;11.88;;;13.80;99.90;;;;;;4975144;28;20041;-67
2023/04/29 04:46:27;;;;;;;17.10;12.77;;;13.80;99.90;;;;;;4969463;28;20096;-68
2023/04/29 04:49:01;;;;;;;18.23;13.07;;;13.80;99.90;;;;;;4972666;28;20092;-68
2023/04/29 04:51:28;;;;;;;19.85;13.57;;;13.90;99.90;;;;;;4968660;28;20037;-68
2023/04/29 04:53:54;;;;;;;23.30;15.50;;;13.90;99.90;;;;;;4976855;28;20029;-67
2023/04/29 04:56:23;;;;;;;23.10;16.48;;;13.80;99.90;;;;;;4968481;28;20080;-67
2023/04/29 04:58:49;;;;;;;18.63;13.82;;;13.90;99.90;;;;;;4974798;28;20352;-68
2023/04/29 05:01:15;;;;;;;24.90;16.10;;;13.90;99.90;;;;;;4988860;28;20029;-68
2023/04/29 05:03:41;;;;;;;21.08;14.38;;;13.90;99.90;;;;;;4985470;28;20041;-68
2023/04/29 05:06:07;;;;;;;23.35;15.52;;;13.90;99.90;;;;;;4971467;28;20041;-67
2023/04/29 05:08:33;;;;;;;21.83;14.15;;;13.90;99.90;;;;;;4970674;28;20036;-68
2023/04/29 05:11:01;;;;;;;27.73;17.77;;;13.90;99.90;;;;;;4970895;28;20038;-68
2023/04/29 05:13:27;;;;;;;27.45;17.98;;;13.90;99.90;;;;;;4968870;28;20101;-67
2023/04/29 05:15:53;;;;;;;24.92;17.00;;;13.90;99.90;;;;;;4974234;28;20565;-68
2023/04/29 05:18:23;;;;;;;30.15;17.88;;;13.90;99.90;;;;;;4972155;28;20056;-68
2023/04/29 05:20:50;;;;;;;23.80;15.57;;;13.90;99.90;;;;;;4969981;28;20120;-68
2023/04/29 05:23:16;;;;;;;22.40;15.35;;;13.80;99.90;;;;;;4966578;28;20503;-68
2023/04/29 05:25:44;;;;;;;26.65;18.08;;;13.80;99.90;;;;;;4986714;28;20039;-69
2023/04/29 05:28:10;;;;;;;28.50;16.52;;;13.80;99.90;;;;;;4964854;28;20038;-68
2023/04/29 05:30:39;;;;;;;21.92;14.07;;;13.80;99.90;;;;;;4971675;28;20034;-68
2023/04/29 05:33:06;;;;;;;21.42;15.00;;;13.90;99.90;;;;;;4970146;28;20048;-68
2023/04/29 05:35:32;;;;;;;22.50;15.32;;;13.90;99.90;;;;;;4987904;28;20137;-68
2023/04/29 05:37:58;;;;;;;24.70;15.45;;;14.00;99.90;;;;;;4974639;28;20410;-68
2023/04/29 05:40:34;;;;;;;26.05;16.38;;;14.00;99.90;;;;;;4972843;28;20037;-68
2023/04/29 05:43:26;;;;;;;28.08;16.42;;;14.00;99.90;;;;;;4965762;28;20053;-69
2023/04/29 05:45:52;;;;;;;25.98;15.52;;;14.00;99.90;;;;;;4973093;28;20624;-68
2023/04/29 05:48:18;;;;;;;23.90;15.70;;;14.10;99.90;;;;;;4972405;28;20038;-68
2023/04/29 05:50:44;;;;;;;21.35;14.70;;;14.10;99.90;;;;;;4976927;28;20034;-68
2023/04/29 05:53:11;;;;;;;22.90;15.00;;;14.10;99.90;;;;;;4975006;28;20871;-68
2023/04/29 05:55:38;;;;;;;25.42;15.43;;;14.10;99.90;;;;;;4973058;28;20570;-68
2023/04/29 05:58:04;;;;;;;21.08;13.10;;;14.20;99.90;;;;;;4970715;28;20861;-69
2023/04/29 06:00:30;;;;;;;23.67;13.98;;;14.20;99.90;;;;;;4990600;28;20026;-68
2023/04/29 06:03:04;;;;;;;20.92;12.93;;;14.20;99.90;;;;;;4959223;28;20041;-69
2023/04/29 06:05:29;;;;;;;23.27;14.40;;;14.20;99.90;;;;;;4998708;28;20422;-67
2023/04/29 06:08:09;;;;;;;22.08;13.15;;;14.20;99.90;;;;;;4971492;28;20040;-67
2023/04/29 06:10:43;;;;;;;19.05;12.75;;;14.20;99.90;;;;;;4974101;28;20125;-68
2023/04/29 06:13:10;;;;;;;22.83;14.85;;;14.20;99.90;;;;;;4969479;28;20358;-68
2023/04/29 06:15:36;;;;;;;24.13;13.90;;;14.20;99.90;;;;;;4974890;28;20031;-68
2023/04/29 06:18:02;;;;;;;26.13;15.40;;;14.30;99.90;;;;;;4978739;28;20033;-68
2023/04/29 06:20:28;;;;;;;24.25;14.23;;;14.20;99.90;;;;;;4979956;28;20066;-68
2023/04/29 06:22:53;;;;;;;22.90;14.35;;;14.20;99.90;;;;;;4985161;28;20426;-68
2023/04/29 06:25:20;;;;;;;23.58;13.02;;;14.20;99.90;;;;;;4971376;28;20055;-67
2023/04/29 06:27:49;;;;;;;21.92;12.60;;;14.10;99.90;;;;;;4978327;28;20425;-68
2023/04/29 06:30:17;;;;;;;23.27;13.68;;;14.10;99.90;;;;;;4970898;28;20034;-68
2023/04/29 06:32:43;;;;;;;21.67;13.27;;;14.10;99.90;;;;;;4976426;28;20442;-68
2023/04/29 06:35:09;;;;;;;25.70;15.40;;;14.10;99.90;;;;;;4974048;28;20685;-68
2023/04/29 06:38:06;;;;;;;22.35;13.70;;;14.10;99.90;;;;;;4969657;28;20121;-68
2023/04/29 06:41:07;;;;;;;20.75;12.90;;;14.20;99.90;;;;;;4983016;28;20057;-68
2023/04/29 06:43:52;;;;;;;19.00;12.80;;;14.20;99.90;;;;;;4969129;28;20034;-68
2023/04/29 06:46:38;;;;;;;21.30;12.70;;;14.20;99.90;;;;;;4980365;28;20041;-68
2023/04/29 06:49:24;;;;;;;20.27;12.73;;;14.20;99.90;;;;;;4958591;28;20046;-68
2023/04/29 06:51:49;;;;;;;22.70;14.63;;;14.20;99.90;;;;;;4973308;28;20030;-68
2023/04/29 06:54:15;;;;;;;29.20;15.15;;;14.20;99.90;;;;;;4966260;28;20038;-68
2023/04/29 06:56:41;;;;;;;22.23;14.05;;;14.10;99.90;;;;;;4977447;28;20038;-68
2023/04/29 06:59:09;;;;;;;23.15;13.82;;;14.10;99.90;;;;;;4983292;28;20034;-68
2023/04/29 07:01:35;;;;;;;23.38;13.32;;;14.10;99.90;;;;;;4974689;28;20030;-67
2023/04/29 07:04:01;;;;;;;23.33;14.80;;;14.00;99.90;;;;;;4990862;28;20673;-67
2023/04/29 07:06:26;;;;;;;26.42;15.23;;;14.00;99.90;;;;;;4985772;28;20061;-67
2023/04/29 07:08:52;;;;;;;26.73;15.23;;;14.00;99.90;;;;;;4987119;28;20632;-67
2023/04/29 07:11:18;;;;;;;26.90;15.77;;;14.00;99.90;;;;;;4973907;28;20049;-67
2023/04/29 07:13:44;;;;;;;29.50;15.75;;;13.90;99.90;;;;;;4991063;28;20034;-68
2023/04/29 07:16:18;;;;;;;28.48;14.82;;;13.90;99.90;;;;;;4970549;28;20447;-66
2023/04/29 07:18:44;;;;;;;26.92;15.13;;;13.80;99.90;;;;;;4975927;28;20036;-67
2023/04/29 07:21:10;;;;;;;29.77;14.65;;;13.80;99.90;;;;;;4965524;28;20077;-67
2023/04/29 07:23:36;;;;;;;28.23;15.07;;;13.80;99.90;;;;;;4966629;28;20953;-67
2023/04/29 07:26:11;;;;;;;28.60;14.95;;;13.80;99.90;;;;;;4971965;28;20050;-67
2023/04/29 07:28:36;;;;;;;29.17;15.00;;;13.80;99.90;;;;;;4987656;28;20843;-67
2023/04/29 07:31:02;;;;;;;29.38;15.55;;;13.90;99.90;;;;;;4971627;28;20034;-67
2023/04/29 07:33:28;;;;;;;28.38;14.40;;;13.90;99.90;;;;;;4986252;28;20037;-67
2023/04/29 07:35:54;;;;;;;29.27;15.55;;;13.90;99.90;;;;;;4990041;28;20041;-67
2023/04/29 07:38:20;;;;;;;26.02;13.77;;;13.90;99.90;;;;;;4975887;28;20037;-66
2023/04/29 07:40:46;;;;;;;27.80;14.48;;;13.90;99.90;;;;;;4985926;28;20026;-67
2023/04/29 07:43:12;;;;;;;24.52;14.10;;;13.90;99.90;;;;;;4970483;28;20407;-67
2023/04/29 07:45:38;;;;;;;31.50;17.27;;;13.90;99.90;;;;;;4975839;28;20038;-67
2023/04/29 07:48:05;;;;;;;29.30;15.50;;;14.00;99.90;;;;;;4969708;28;20033;-67
2023/04/29 07:50:33;;;;;;;30.98;17.27;;;14.00;99.90;;;;;;4974819;28;20778;-68
2023/04/29 07:53:01;;;;;;;275.48;108.20;;;14.00;99.90;;;;;;4990060;28;20034;-71
2023/04/29 07:55:28;;;;;;;54.45;29.88;;;14.00;99.90;;;;;;4987143;28;20573;-66
2023/04/29 07:57:55;;;;;;;36.92;20.65;;;14.00;99.90;;;;;;4969100;28;20117;-67
2023/04/29 08:00:22;;;;;;;27.73;15.43;;;14.00;99.90;;;;;;4970037;28;20030;-68
2023/04/29 08:02:55;;;;;;;36.38;18.08;;;13.90;99.90;;;;;;4987212;28;20068;-68
2023/04/29 08:05:23;;;;;;;25.83;14.75;;;13.90;99.90;;;;;;4969805;28;20399;-68
2023/04/29 08:07:50;;;;;;;27.75;15.48;;;13.90;99.90;;;;;;4967289;28;20026;-68
2023/04/29 08:10:17;;;;;;;36.00;18.13;;;13.90;99.90;;;;;;4975632;28;20113;-68
2023/04/29 08:12:47;;;;;;;36.65;17.50;;;14.00;99.90;;;;;;4971405;28;20048;-67
2023/04/29 08:15:14;;;;;;;29.23;16.52;;;14.00;99.90;;;;;;4980555;28;20187;-68
2023/04/29 08:17:40;;;;;;;35.15;18.92;;;14.00;99.90;;;;;;4991162;28;20029;-68
2023/04/29 08:20:07;;;;;;;32.63;16.05;;;14.00;99.90;;;;;;4969629;28;20407;-69
2023/04/29 08:22:33;;;;;;;31.90;16.60;;;14.00;99.90;;;;;;4984620;28;20030;-68
2023/04/29 08:24:59;;;;;;;28.08;15.38;;;14.00;99.90;;;;;;4985467;28;20033;-69
2023/04/29 08:27:25;;;;;;;27.73;15.95;;;14.00;99.90;;;;;;4981750;28;20034;-66
2023/04/29 08:29:51;;;;;;;33.22;17.15;;;14.00;99.90;;;;;;4989264;28;20052;-65
2023/04/29 08:32:17;;;;;;;33.83;16.67;;;14.00;99.90;;;;;;4992116;28;20195;-68
2023/04/29 08:34:43;;;;;;;41.00;21.25;;;13.90;99.90;;;;;;4992299;28;20026;-67
2023/04/29 08:37:10;;;;;;;37.47;21.00;;;13.80;99.90;;;;;;4986789;28;20034;-67
2023/04/29 08:39:36;;;;;;;35.17;18.00;;;13.80;99.90;;;;;;4993307;28;20029;-67
2023/04/29 08:42:09;;;;;;;36.53;18.02;;;13.80;99.90;;;;;;4987651;28;20038;-68
2023/04/29 08:44:35;;;;;;;38.03;19.20;;;13.70;99.90;;;;;;4991955;28;20033;-67
2023/04/29 08:47:01;;;;;;;36.75;19.92;;;13.60;99.90;;;;;;4987490;28;20062;-67
2023/04/29 08:49:28;;;;;;;38.58;19.52;;;13.50;99.90;;;;;;4968837;28;20034;-67
2023/04/29 08:51:55;;;;;;;40.33;21.50;;;13.50;99.90;;;;;;4973841;28;20430;-65
2023/04/29 08:54:20;;;;;;;41.47;21.98;;;13.40;99.90;;;;;;4990400;28;20084;-66
2023/04/29 08:56:47;;;;;;;40.90;20.52;;;13.40;99.90;;;;;;4985437;28;20038;-64
2023/04/29 08:59:17;;;;;;;35.65;19.48;;;13.40;99.90;;;;;;4984240;28;20132;-68
2023/04/29 09:01:49;;;;;;;34.40;20.10;;;13.30;99.90;;;;;;4988105;28;20216;-66
2023/04/29 09:04:46;;;;;;;48.63;22.95;;;13.30;99.90;;;;;;4985584;28;20040;-66
2023/04/29 09:07:12;;;;;;;42.08;21.73;;;13.30;99.90;;;;;;4977604;28;20037;-66
2023/04/29 09:09:41;;;;;;;45.28;21.27;;;13.30;99.90;;;;;;4981417;28;20038;-66
2023/04/29 09:12:08;;;;;;;42.10;21.80;;;13.30;99.90;;;;;;4981135;28;20034;-66
2023/04/29 09:14:34;;;;;;;38.50;20.92;;;13.30;99.90;;;;;;4979778;28;20600;-67
2023/04/29 09:17:00;;;;;;;42.13;21.80;;;13.30;99.90;;;;;;4989144;28;20040;-67
2023/04/29 09:19:34;;;;;;;36.47;21.40;;;13.20;99.90;;;;;;4988760;28;20034;-67
2023/04/29 09:22:01;;;;;;;36.40;21.30;;;13.20;99.90;;;;;;4988268;28;20030;-67
2023/04/29 09:24:29;;;;;;;38.80;21.92;;;13.20;99.90;;;;;;4991051;28;20026;-66
2023/04/29 09:26:56;;;;;;;36.67;21.13;;;13.20;99.90;;;;;;4981706;28;20030;-66
2023/04/29 09:29:22;;;;;;;34.30;19.70;;;13.20;99.90;;;;;;4986731;28;20112;-67
2023/04/29 09:31:49;;;;;;;30.88;17.08;;;13.30;99.90;;;;;;4984930;28;20883;-67
2023/04/29 09:34:15;;;;;;;50.05;26.50;;;13.30;99.90;;;;;;4988498;28;20053;-67
2023/04/29 09:36:50;;;;;;;38.50;21.50;;;13.30;99.90;;;;;;4986730;28;20033;-67
2023/04/29 09:39:18;;;;;;;31.05;17.73;;;13.20;99.90;;;;;;4981722;28;20038;-67
2023/04/29 09:41:52;;;;;;;29.45;18.48;;;13.20;99.90;;;;;;4984903;28;20104;-69
2023/04/29 09:44:24;;;;;;;26.13;16.27;;;13.30;99.90;;;;;;4988880;28;20037;-66
2023/04/29 09:46:57;;;;;;;28.05;17.30;;;13.30;99.90;;;;;;4988498;28;20034;-66
2023/04/29 09:49:25;;;;;;;28.85;18.40;;;13.40;99.90;;;;;;4986922;28;20043;-66
2023/04/29 09:51:52;;;;;;;28.00;17.60;;;13.40;99.90;;;;;;4988749;28;20545;-66
2023/04/29 09:54:30;;;;;;;30.92;18.15;;;13.40;99.90;;;;;;4983159;28;20034;-67
2023/04/29 09:56:57;;;;;;;28.95;17.42;;;13.40;99.90;;;;;;4990700;28;20026;-66
2023/04/29 09:59:24;;;;;;;30.85;18.05;;;13.40;99.90;;;;;;4983671;28;20749;-67
2023/04/29 10:01:52;;;;;;;33.75;18.80;;;13.50;99.90;;;;;;4983303;28;20135;-66
2023/04/29 10:04:20;;;;;;;38.53;21.20;;;13.50;99.90;;;;;;4988078;28;20046;-66
2023/04/29 10:06:48;;;;;;;34.92;19.25;;;13.60;99.90;;;;;;4994872;28;20044;-67
2023/04/29 10:09:15;;;;;;;31.20;18.83;;;13.50;99.90;;;;;;4986718;28;20050;-67
2023/04/29 10:11:43;;;;;;;35.17;18.33;;;13.60;99.90;;;;;;4984770;28;20437;-67
2023/04/29 10:14:15;;;;;;;35.95;19.02;;;13.60;99.90;;;;;;4989345;28;20038;-66
2023/04/29 10:17:04;;;;;;;34.60;19.05;;;13.60;99.90;;;;;;4985962;28;20036;-65
2023/04/29 10:19:38;;;;;;;34.03;19.50;;;13.50;99.90;;;;;;4988868;28;20074;-67
2023/04/29 10:22:13;;;;;;;36.33;20.20;;;13.50;99.90;;;;;;4984096;28;20522;-66
2023/04/29 10:24:40;;;;;;;36.13;20.05;;;13.50;99.90;;;;;;4985653;28;20029;-66
2023/04/29 10:27:14;;;;;;;33.70;18.88;;;13.50;99.90;;;;;;4989451;28;20030;-66
2023/04/29 10:29:42;;;;;;;34.40;18.55;;;13.50;99.90;;;;;;4985070;28;20030;-66
2023/04/29 10:32:09;;;;;;;34.25;19.10;;;13.60;99.90;;;;;;4973692;28;20026;-67
2023/04/29 10:34:38;;;;;;;33.20;18.75;;;13.60;99.90;;;;;;4991325;28;20030;-66
2023/04/29 10:37:08;;;;;;;33.47;20.42;;;13.60;99.90;;;;;;4990925;28;20038;-67
2023/04/29 10:40:07;;;;;;;30.67;18.08;;;13.60;99.90;;;;;;4992647;28;20145;-66
2023/04/29 10:42:46;;;;;;;28.88;18.45;;;13.60;99.90;;;;;;4951928;28;20399;-67
2023/04/29 10:45:28;;;;;;;31.15;18.52;;;13.60;99.90;;;;;;4994032;28;20045;-68
2023/04/29 10:48:07;;;;;;;37.13;20.85;;;13.60;99.90;;;;;;4986644;28;20034;-67
2023/04/29 10:50:58;;;;;;;32.25;20.08;;;13.70;99.90;;;;;;4980856;28;20045;-67
2023/04/29 10:53:24;;;;;;;33.90;19.92;;;13.70;99.90;;;;;;4975447;28;20137;-65
2023/04/29 10:55:58;;;;;;;33.42;20.42;;;13.60;99.90;;;;;;4991835;28;20223;-67
2023/04/29 10:58:41;;;;;;;34.30;20.55;;;13.60;99.90;;;;;;4995211;28;20037;-64
2023/04/29 11:01:10;;;;;;;31.08;18.83;;;13.60;99.90;;;;;;5001467;28;20037;-66
2023/04/29 11:03:47;;;;;;;32.50;20.10;;;13.60;99.90;;;;;;5001962;28;20098;-67
2023/04/29 11:06:13;;;;;;;26.48;17.40;;;13.70;99.90;;;;;;4983788;28;20066;-66
2023/04/29 11:08:39;;;;;;;31.50;18.52;;;13.70;99.90;;;;;;4981475;28;20041;-66
2023/04/29 11:11:05;;;;;;;24.33;17.08;;;13.80;99.90;;;;;;4982307;28;20045;-67
2023/04/29 11:13:37;;;;;;;29.90;17.85;;;14.00;99.90;;;;;;4965252;28;20062;-66
2023/04/29 11:16:08;;;;;;;28.00;18.63;;;14.20;99.90;;;;;;4981653;28;20394;-66
2023/04/29 11:18:35;;;;;;;29.13;17.70;;;14.30;99.90;;;;;;4982391;28;20026;-66
2023/04/29 11:21:07;;;;;;;28.00;17.20;;;14.50;99.90;;;;;;4981500;28;20030;-66
2023/04/29 11:23:37;;;;;;;31.15;17.83;;;14.50;99.90;;;;;;4981632;28;20049;-66
2023/04/29 11:26:03;;;;;;;28.33;17.15;;;14.60;99.90;;;;;;4981592;28;20042;-67
2023/04/29 11:28:31;;;;;;;23.42;15.77;;;14.70;99.90;;;;;;4982937;28;20042;-67
2023/04/29 11:30:58;;;;;;;23.48;14.25;;;14.90;99.90;;;;;;4979098;28;20037;-67
2023/04/29 11:33:26;;;;;;;29.48;15.93;;;15.10;99.90;;;;;;4981449;28;20045;-67
2023/04/29 11:35:53;;;;;;;32.38;16.50;;;15.20;99.90;;;;;;4982083;28;20042;-67
2023/04/29 11:38:24;;;;;;;21.55;14.43;;;15.20;99.90;;;;;;4982397;28;20048;-67
2023/04/29 11:40:51;;;;;;;24.95;16.48;;;15.20;99.90;;;;;;4982788;28;20030;-67
2023/04/29 11:43:17;;;;;;;24.92;16.52;;;15.20;99.90;;;;;;4982373;28;20097;-67
2023/04/29 11:45:47;;;;;;;25.02;15.75;;;15.20;99.90;;;;;;4981685;28;20506;-68
2023/04/29 11:48:19;;;;;;;23.83;14.93;;;15.10;99.90;;;;;;4967340;28;20495;-67
2023/04/29 11:50:50;;;;;;;26.55;16.23;;;15.00;99.90;;;;;;4967354;28;20038;-67
2023/04/29 11:53:19;;;;;;;25.58;15.88;;;14.90;99.90;;;;;;4999552;28;20141;-65
2023/04/29 11:55:45;;;;;;;22.60;13.88;;;14.80;99.90;;;;;;4999598;28;20040;-66
2023/04/29 11:58:11;;;;;;;22.23;13.85;;;14.80;99.90;;;;;;4998823;28;20038;-65
2023/04/29 12:00:37;;;;;;;20.75;14.60;;;14.80;99.90;;;;;;4999531;28;20064;-64
2023/04/29 12:03:20;;;;;;;21.48;14.65;;;14.90;99.90;;;;;;4999826;28;20559;-66
2023/04/29 12:05:55;;;;;;;20.83;13.88;;;14.90;99.90;;;;;;4973752;28;20045;-65
2023/04/29 12:08:23;;;;;;;23.33;14.30;;;15.00;99.90;;;;;;4978747;28;20424;-65
2023/04/29 12:10:49;;;;;;;21.58;12.85;;;15.10;99.90;;;;;;4980170;28;20091;-64
2023/04/29 12:13:16;;;;;;;18.08;12.82;;;15.30;99.90;;;;;;4979974;28;20114;-64
2023/04/29 12:15:47;;;;;;;16.85;11.38;;;15.40;99.90;;;;;;4980667;28;20038;-65
2023/04/29 12:18:13;;;;;;;18.77;11.80;;;15.40;99.70;;;;;;4979952;28;20030;-65
2023/04/29 12:20:40;;;;;;;19.77;12.95;;;15.50;99.90;;;;;;4979303;28;20050;-65
2023/04/29 12:23:13;;;;;;;20.23;11.80;;;15.50;99.90;;;;;;4978542;28;20042;-65
2023/04/29 12:25:40;;;;;;;19.38;11.93;;;15.50;99.60;;;;;;4979296;28;20634;-65
2023/04/29 12:28:11;;;;;;;18.70;11.80;;;15.50;99.30;;;;;;4979487;28;20037;-66
2023/04/29 12:30:37;;;;;;;15.85;10.57;;;15.50;99.40;;;;;;4989812;28;20141;-66
2023/04/29 12:33:03;;;;;;;17.75;12.60;;;15.50;99.60;;;;;;4984897;28;20637;-66
2023/04/29 12:35:30;;;;;;;13.80;9.98;;;15.70;99.80;;;;;;4989548;28;20029;-66
2023/04/29 12:37:58;;;;;;;15.50;10.60;;;15.80;99.70;;;;;;4983824;28;20026;-64
2023/04/29 12:40:24;;;;;;;19.08;11.00;;;16.00;99.30;;;;;;4987993;28;20050;-65
2023/04/29 12:42:52;;;;;;;13.77;9.35;;;16.10;98.70;;;;;;4988154;28;20566;-65